createdAt,value
2023-04-03T00:00:01.762Z,2.43
2023-04-03T00:02:28.245Z,2.38
2023-04-03T00:04:54.749Z,2.35
2023-04-03T00:07:21.209Z,2.34
2023-04-03T00:09:47.612Z,2.34
2023-04-03T00:12:14.008Z,2.33
2023-04-03T00:14:40.443Z,2.28
2023-04-03T00:17:06.946Z,2.28
2023-04-03T00:19:33.413Z,2.26
2023-04-03T00:21:59.829Z,2.23
2023-04-03T00:24:26.265Z,2.23
2023-04-03T00:26:52.742Z,2.21
2023-04-03T00:29:19.164Z,2.19
2023-04-03T00:31:46.291Z,2.16
2023-04-03T00:34:12.752Z,2.13
2023-04-03T00:36:39.239Z,2.16
2023-04-03T00:39:05.715Z,2.15
2023-04-03T00:41:32.844Z,2.15
2023-04-03T00:43:59.274Z,2.13
2023-04-03T00:46:25.698Z,2.13
2023-04-03T00:48:52.160Z,2.08
2023-04-03T00:51:25.359Z,2.00
2023-04-03T00:53:55.939Z,1.99
2023-04-03T00:56:24.793Z,1.98
2023-04-03T00:59:04.208Z,1.93
2023-04-03T01:01:31.624Z,1.92
2023-04-03T01:04:00.743Z,1.94
2023-04-03T01:06:29.574Z,1.95
2023-04-03T01:08:56.530Z,1.92
2023-04-03T01:11:23.285Z,1.89
2023-04-03T01:13:50.285Z,1.87
2023-04-03T01:16:16.871Z,1.81
2023-04-03T01:18:43.869Z,1.81
2023-04-03T01:21:22.448Z,1.82
2023-04-03T01:24:00.813Z,1.80
2023-04-03T01:26:29.198Z,1.80
2023-04-03T01:28:56.430Z,1.80
2023-04-03T01:31:29.881Z,1.80
2023-04-03T01:33:56.665Z,1.77
2023-04-03T01:36:26.098Z,1.73
2023-04-03T01:38:53.639Z,1.72
2023-04-03T01:41:22.012Z,1.72
2023-04-03T01:43:49.424Z,1.70
2023-04-03T01:46:17.187Z,1.68
2023-04-03T01:48:43.819Z,1.65
2023-04-03T01:51:10.501Z,1.60
2023-04-03T01:53:36.915Z,1.56
2023-04-03T01:56:03.566Z,1.56
2023-04-03T01:58:29.987Z,1.51
2023-04-03T02:00:56.757Z,1.54
2023-04-03T02:03:23.238Z,1.49
2023-04-03T02:05:50.636Z,1.51
2023-04-03T02:08:18.940Z,1.48
2023-04-03T02:10:48.575Z,1.45
2023-04-03T02:13:15.468Z,1.42
2023-04-03T02:15:42.043Z,1.42
2023-04-03T02:18:09.082Z,1.40
2023-04-03T02:20:35.859Z,1.42
2023-04-03T02:23:02.626Z,1.44
2023-04-03T02:25:29.228Z,1.42
2023-04-03T02:27:55.695Z,1.40
2023-04-03T02:30:22.418Z,1.42
2023-04-03T02:32:48.847Z,1.39
2023-04-03T02:35:15.291Z,1.35
2023-04-03T02:37:42.049Z,1.34
2023-04-03T02:40:09.118Z,1.34
2023-04-03T02:42:35.845Z,1.32
2023-04-03T02:45:02.307Z,1.31
2023-04-03T02:47:29.018Z,1.27
2023-04-03T02:49:55.538Z,1.24
2023-04-03T02:52:22.023Z,1.19
2023-04-03T02:54:48.511Z,1.20
2023-04-03T02:57:15.208Z,1.19
2023-04-03T02:59:41.694Z,1.17
2023-04-03T03:02:09.070Z,1.14
2023-04-03T03:04:36.214Z,1.14
2023-04-03T03:07:02.878Z,1.14
2023-04-03T03:09:30.402Z,1.13
2023-04-03T03:11:57.783Z,1.08
2023-04-03T03:14:24.558Z,1.08
2023-04-03T03:16:51.117Z,1.08
2023-04-03T03:19:17.545Z,1.09
2023-04-03T03:21:43.989Z,1.09
2023-04-03T03:24:10.419Z,1.06
2023-04-03T03:26:36.950Z,1.06
2023-04-03T03:29:03.487Z,1.06
2023-04-03T03:31:29.913Z,1.03
2023-04-03T03:33:56.351Z,0.98
2023-04-03T03:36:23.022Z,0.94
2023-04-03T03:38:49.474Z,0.96
2023-04-03T03:41:15.997Z,0.94
2023-04-03T03:43:42.570Z,0.87
2023-04-03T03:46:09.024Z,0.84
2023-04-03T03:48:35.680Z,0.82
2023-04-03T03:51:02.123Z,0.79
2023-04-03T03:53:28.574Z,0.76
2023-04-03T03:55:55.462Z,0.75
2023-04-03T03:58:21.893Z,0.68
2023-04-03T04:00:48.288Z,0.65
2023-04-03T04:03:14.800Z,0.63
2023-04-03T04:05:41.301Z,0.60
2023-04-03T04:08:07.704Z,0.60
2023-04-03T04:10:35.260Z,0.55
2023-04-03T04:13:01.691Z,0.55
2023-04-03T04:15:28.167Z,0.56
2023-04-03T04:17:54.714Z,0.54
2023-04-03T04:20:21.423Z,0.49
2023-04-03T04:22:47.878Z,0.51
2023-04-03T04:25:14.337Z,0.49
2023-04-03T04:27:40.804Z,0.39
2023-04-03T04:30:07.830Z,0.40
2023-04-03T04:32:34.269Z,0.41
2023-04-03T04:35:00.788Z,0.39
2023-04-03T04:37:27.228Z,0.39
2023-04-03T04:39:53.654Z,0.39
2023-04-03T04:42:20.248Z,0.34
2023-04-03T04:44:46.673Z,0.33
2023-04-03T04:47:13.076Z,0.35
2023-04-03T04:49:39.529Z,0.39
2023-04-03T04:52:06.085Z,0.38
2023-04-03T04:54:32.520Z,0.37
2023-04-03T04:56:59.033Z,0.38
2023-04-03T04:59:25.781Z,0.41
2023-04-03T05:01:52.281Z,0.43
2023-04-03T05:04:18.889Z,0.44
2023-04-03T05:06:45.538Z,0.44
2023-04-03T05:09:12.174Z,0.49
2023-04-03T05:11:38.802Z,0.55
2023-04-03T05:14:07.421Z,0.74
2023-04-03T05:16:34.718Z,0.86
2023-04-03T05:19:01.276Z,0.93
2023-04-03T05:21:30.179Z,0.96
2023-04-03T05:23:56.658Z,0.98
2023-04-03T05:26:23.071Z,1.00
2023-04-03T05:28:49.530Z,1.04
2023-04-03T05:31:16.116Z,1.10
2023-04-03T05:33:42.560Z,1.17
2023-04-03T05:36:09.343Z,1.22
2023-04-03T05:38:35.996Z,1.25
2023-04-03T05:41:02.669Z,1.30
